CHZ2255 LLBG-LCLK
Flight info
| Callsign | CHZ2255 |
|---|---|
| Flight time | 1h 4m |
| Altitude | 24000 |
| Route | DAFNA1E DAFNA DCT VELOX N131 EMEDA DCT |
| Aircraft | B77L/H-SDE1E2E3FGHIJ2J3J4J5M1RWXY/LB1D1 |
Departure
| Time | 2026-05-06 17:56 |
|---|---|
| Airport | Ben Gurion International Airport (LLBG) |
Arrival
| Time | 2026-05-06 19:00 |
|---|---|
| Airport | Larnaca International Airport (LCLK) |
| Time | Latitude | Longitude | Altitude | Speed | Heading |
|---|---|---|---|---|---|
| 2026-05-06 17:14 | 31.99425 | 34.90062 | 124 ft | 0 kts | 91° |
| 2026-05-06 17:39 | 31.99425 | 34.90055 | 119 ft | 2 kts | 91° |
| 2026-05-06 17:40 | 31.99426 | 34.90032 | 121 ft | 3 kts | 91° |
| 2026-05-06 17:40 | 31.99427 | 34.90009 | 120 ft | 3 kts | 91° |
| 2026-05-06 17:40 | 31.99426 | 34.89992 | 119 ft | 3 kts | 57° |
| 2026-05-06 17:40 | 31.99425 | 34.89986 | 120 ft | 3 kts | 8° |
| 2026-05-06 17:41 | 31.99415 | 34.89986 | 119 ft | 2 kts | 334° |
| 2026-05-06 17:41 | 31.99417 | 34.89985 | 121 ft | 2 kts | 333° |
| 2026-05-06 17:41 | 31.99435 | 34.89975 | 119 ft | 3 kts | 334° |
| 2026-05-06 17:41 | 31.99453 | 34.89965 | 119 ft | 3 kts | 336° |
| 2026-05-06 17:42 | 31.99472 | 34.89956 | 119 ft | 3 kts | 339° |
| 2026-05-06 17:42 | 31.99491 | 34.89948 | 121 ft | 3 kts | 341° |
| 2026-05-06 17:42 | 31.99511 | 34.89941 | 120 ft | 3 kts | 344° |
| 2026-05-06 17:42 | 31.99522 | 34.89938 | 119 ft | 0 kts | 345° |
| 2026-05-06 17:46 | 31.99540 | 34.89932 | 119 ft | 10 kts | 346° |
| 2026-05-06 17:47 | 31.99658 | 34.89894 | 119 ft | 21 kts | 338° |
| 2026-05-06 17:47 | 31.99822 | 34.89797 | 119 ft | 27 kts | 333° |
| 2026-05-06 17:47 | 31.99991 | 34.89697 | 122 ft | 27 kts | 333° |
| 2026-05-06 17:47 | 32.00160 | 34.89595 | 119 ft | 27 kts | 329° |
| 2026-05-06 17:48 | 32.00201 | 34.89558 | 120 ft | 16 kts | 315° |
| 2026-05-06 17:48 | 32.00266 | 34.89449 | 120 ft | 0 kts | 300° |
| 2026-05-06 17:48 | 32.00297 | 34.89390 | 120 ft | 17 kts | 302° |
| 2026-05-06 17:48 | 32.00361 | 34.89267 | 119 ft | 13 kts | 301° |
| 2026-05-06 17:49 | 32.00363 | 34.89264 | 119 ft | 0 kts | 301° |
| 2026-05-06 17:49 | 32.00380 | 34.89231 | 121 ft | 14 kts | 301° |
| 2026-05-06 17:49 | 32.00433 | 34.89129 | 119 ft | 15 kts | 301° |
| 2026-05-06 17:50 | 32.00488 | 34.89022 | 123 ft | 18 kts | 304° |
| 2026-05-06 17:50 | 32.00595 | 34.89002 | 121 ft | 19 kts | 31° |
| 2026-05-06 17:50 | 32.00723 | 34.89088 | 121 ft | 21 kts | 29° |
| 2026-05-06 17:50 | 32.00853 | 34.89173 | 121 ft | 21 kts | 29° |
| 2026-05-06 17:51 | 32.00985 | 34.89257 | 121 ft | 21 kts | 28° |
| 2026-05-06 17:51 | 32.01126 | 34.89347 | 120 ft | 23 kts | 28° |
| 2026-05-06 17:51 | 32.01268 | 34.89439 | 121 ft | 23 kts | 28° |
| 2026-05-06 17:51 | 32.01410 | 34.89531 | 120 ft | 23 kts | 29° |
| 2026-05-06 17:52 | 32.01552 | 34.89623 | 121 ft | 23 kts | 27° |
| 2026-05-06 17:52 | 32.01645 | 34.89682 | 121 ft | 0 kts | 27° |
| 2026-05-06 17:53 | 32.01686 | 34.89707 | 120 ft | 15 kts | 27° |
| 2026-05-06 17:53 | 32.01780 | 34.89761 | 120 ft | 15 kts | 13° |
| 2026-05-06 17:54 | 32.01834 | 34.89676 | 118 ft | 15 kts | 268° |
| 2026-05-06 17:54 | 32.01818 | 34.89552 | 117 ft | 15 kts | 261° |
| 2026-05-06 17:54 | 32.01798 | 34.89429 | 120 ft | 15 kts | 259° |
| 2026-05-06 17:54 | 32.01779 | 34.89307 | 121 ft | 8 kts | 259° |
| 2026-05-06 17:55 | 32.01779 | 34.89305 | 121 ft | 0 kts | 259° |
| 2026-05-06 17:55 | 32.01756 | 34.89153 | 121 ft | 55 kts | 259° |
| 2026-05-06 17:56 | 32.01626 | 34.88291 | 125 ft | 157 kts | 259° |
| 2026-05-06 17:56 | 32.01388 | 34.86786 | 707 ft | 196 kts | 261° |
| 2026-05-06 17:56 | 32.01140 | 34.85204 | 1702 ft | 197 kts | 263° |
| 2026-05-06 17:56 | 32.00872 | 34.83589 | 2181 ft | 207 kts | 257° |
| 2026-05-06 17:57 | 32.00495 | 34.81916 | 2716 ft | 214 kts | 257° |
| 2026-05-06 17:57 | 32.00090 | 34.80180 | 3226 ft | 225 kts | 256° |
| 2026-05-06 17:57 | 31.99678 | 34.78335 | 3611 ft | 242 kts | 258° |
| 2026-05-06 17:57 | 31.99285 | 34.76380 | 4279 ft | 246 kts | 259° |
| 2026-05-06 17:58 | 31.99297 | 34.74375 | 4867 ft | 250 kts | 286° |
| 2026-05-06 17:58 | 31.99896 | 34.72430 | 5471 ft | 254 kts | 290° |
| 2026-05-06 17:58 | 32.00521 | 34.70456 | 6193 ft | 259 kts | 289° |
| 2026-05-06 17:58 | 32.01149 | 34.68444 | 6878 ft | 264 kts | 290° |
| 2026-05-06 17:59 | 32.01788 | 34.66396 | 7545 ft | 268 kts | 290° |
| 2026-05-06 17:59 | 32.02434 | 34.64318 | 8006 ft | 272 kts | 289° |
| 2026-05-06 17:59 | 32.02843 | 34.62123 | 8015 ft | 277 kts | 275° |
| 2026-05-06 17:59 | 32.02941 | 34.59855 | 8011 ft | 277 kts | 272° |
| 2026-05-06 18:00 | 32.03014 | 34.57600 | 8011 ft | 274 kts | 272° |
| 2026-05-06 18:00 | 32.03109 | 34.55372 | 8009 ft | 271 kts | 273° |
| 2026-05-06 18:00 | 32.03217 | 34.53148 | 8014 ft | 272 kts | 273° |
| 2026-05-06 18:00 | 32.03330 | 34.50910 | 8121 ft | 274 kts | 274° |
| 2026-05-06 18:01 | 32.03531 | 34.48685 | 8786 ft | 275 kts | 286° |
| 2026-05-06 18:01 | 32.04455 | 34.46720 | 9496 ft | 279 kts | 313° |
| 2026-05-06 18:01 | 32.06055 | 34.45430 | 10261 ft | 284 kts | 335° |
| 2026-05-06 18:01 | 32.08018 | 34.44963 | 10598 ft | 306 kts | 358° |
| 2026-05-06 18:02 | 32.10233 | 34.45195 | 10780 ft | 332 kts | 4° |
| 2026-05-06 18:02 | 32.12609 | 34.45555 | 10965 ft | 356 kts | 4° |
| 2026-05-06 18:02 | 32.15141 | 34.45946 | 11305 ft | 375 kts | 4° |
| 2026-05-06 18:02 | 32.16906 | 34.46208 | 11718 ft | 382 kts | 4° |
| 2026-05-06 18:03 | 32.19575 | 34.46584 | 12469 ft | 389 kts | 2° |
| 2026-05-06 18:03 | 32.22275 | 34.46947 | 13333 ft | 393 kts | 2° |
| 2026-05-06 18:03 | 32.25009 | 34.47308 | 14132 ft | 398 kts | 2° |
| 2026-05-06 18:03 | 32.27784 | 34.47674 | 14869 ft | 403 kts | 2° |
| 2026-05-06 18:04 | 32.30564 | 34.47849 | 15485 ft | 399 kts | 349° |
| 2026-05-06 18:04 | 32.33210 | 34.46959 | 16099 ft | 395 kts | 330° |
| 2026-05-06 18:04 | 32.35482 | 34.45189 | 16935 ft | 388 kts | 315° |
| 2026-05-06 18:04 | 32.37423 | 34.42975 | 17693 ft | 389 kts | 311° |
| 2026-05-06 18:05 | 32.39335 | 34.40677 | 18401 ft | 394 kts | 311° |
| 2026-05-06 18:05 | 32.41264 | 34.38351 | 19049 ft | 398 kts | 311° |
| 2026-05-06 18:05 | 32.43217 | 34.36019 | 19746 ft | 400 kts | 311° |
| 2026-05-06 18:05 | 32.45193 | 34.33682 | 20427 ft | 403 kts | 311° |
| 2026-05-06 18:06 | 32.47189 | 34.31337 | 21097 ft | 406 kts | 311° |
| 2026-05-06 18:06 | 32.49209 | 34.28971 | 21728 ft | 410 kts | 311° |
| 2026-05-06 18:06 | 32.51245 | 34.26585 | 22359 ft | 413 kts | 311° |
| 2026-05-06 18:06 | 32.53439 | 34.24372 | 22828 ft | 423 kts | 323° |
| 2026-05-06 18:07 | 32.56157 | 34.22874 | 23326 ft | 440 kts | 338° |
| 2026-05-06 18:07 | 32.59203 | 34.22222 | 23895 ft | 448 kts | 348° |
| 2026-05-06 18:07 | 32.62325 | 34.21870 | 24116 ft | 455 kts | 349° |
| 2026-05-06 18:07 | 32.65505 | 34.21558 | 24098 ft | 461 kts | 349° |
| 2026-05-06 18:08 | 32.68699 | 34.21255 | 24104 ft | 462 kts | 349° |
| 2026-05-06 18:08 | 32.71902 | 34.20940 | 24092 ft | 461 kts | 349° |
| 2026-05-06 18:08 | 32.75089 | 34.20610 | 24090 ft | 460 kts | 349° |
| 2026-05-06 18:08 | 32.78267 | 34.20265 | 24093 ft | 459 kts | 349° |
| 2026-05-06 18:09 | 32.81449 | 34.19909 | 24093 ft | 458 kts | 348° |
| 2026-05-06 18:09 | 32.84624 | 34.19546 | 24092 ft | 458 kts | 348° |
| 2026-05-06 18:09 | 32.87794 | 34.19182 | 24094 ft | 458 kts | 348° |
| 2026-05-06 18:09 | 32.90961 | 34.18817 | 24097 ft | 457 kts | 348° |
| 2026-05-06 18:10 | 32.94130 | 34.18452 | 24099 ft | 457 kts | 348° |
| 2026-05-06 18:10 | 32.97300 | 34.18086 | 24098 ft | 457 kts | 348° |
| 2026-05-06 18:10 | 33.00464 | 34.17722 | 24100 ft | 457 kts | 348° |
| 2026-05-06 18:10 | 33.03630 | 34.17358 | 24096 ft | 457 kts | 348° |
| 2026-05-06 18:11 | 33.06794 | 34.16994 | 24099 ft | 457 kts | 348° |
| 2026-05-06 18:11 | 33.08889 | 34.16753 | 24098 ft | 457 kts | 348° |
| 2026-05-06 18:11 | 33.13117 | 34.16266 | 24102 ft | 456 kts | 349° |
| 2026-05-06 18:11 | 33.16278 | 34.15902 | 24096 ft | 456 kts | 349° |
| 2026-05-06 18:12 | 33.18376 | 34.15660 | 24098 ft | 456 kts | 349° |
| 2026-05-06 18:12 | 33.21531 | 34.15296 | 24097 ft | 456 kts | 349° |
| 2026-05-06 18:12 | 33.24689 | 34.14931 | 24096 ft | 455 kts | 349° |
| 2026-05-06 18:12 | 33.27844 | 34.14567 | 24099 ft | 455 kts | 349° |
| 2026-05-06 18:13 | 33.32014 | 34.14084 | 24099 ft | 455 kts | 349° |
| 2026-05-06 18:13 | 33.34150 | 34.13837 | 24097 ft | 455 kts | 349° |
| 2026-05-06 18:13 | 33.37294 | 34.13473 | 24099 ft | 454 kts | 349° |
| 2026-05-06 18:13 | 33.40440 | 34.13108 | 24098 ft | 454 kts | 349° |
| 2026-05-06 18:14 | 33.43584 | 34.12743 | 24098 ft | 454 kts | 349° |
| 2026-05-06 18:14 | 33.46726 | 34.12378 | 24097 ft | 453 kts | 349° |
| 2026-05-06 18:14 | 33.49850 | 34.12015 | 24097 ft | 453 kts | 349° |
| 2026-05-06 18:14 | 33.53001 | 34.11649 | 24097 ft | 453 kts | 349° |
| 2026-05-06 18:15 | 33.56100 | 34.11289 | 24093 ft | 453 kts | 349° |
| 2026-05-06 18:15 | 33.59238 | 34.10923 | 24097 ft | 452 kts | 349° |
| 2026-05-06 18:15 | 33.62370 | 34.10558 | 24096 ft | 452 kts | 349° |
| 2026-05-06 18:15 | 33.65505 | 34.10193 | 24095 ft | 452 kts | 349° |
| 2026-05-06 18:16 | 33.68636 | 34.09827 | 24096 ft | 452 kts | 349° |
| 2026-05-06 18:16 | 33.71766 | 34.09462 | 24100 ft | 452 kts | 349° |
| 2026-05-06 18:16 | 33.74881 | 34.09099 | 24088 ft | 445 kts | 349° |
| 2026-05-06 18:16 | 33.77925 | 34.08747 | 24080 ft | 433 kts | 349° |
| 2026-05-06 18:17 | 33.80868 | 34.08291 | 23801 ft | 421 kts | 344° |
| 2026-05-06 18:17 | 33.83696 | 34.07512 | 23340 ft | 413 kts | 339° |
| 2026-05-06 18:17 | 33.86396 | 34.06419 | 22764 ft | 408 kts | 336° |
| 2026-05-06 18:17 | 33.89059 | 34.05285 | 22226 ft | 405 kts | 336° |
| 2026-05-06 18:18 | 33.91702 | 34.04159 | 21689 ft | 401 kts | 336° |
| 2026-05-06 18:18 | 33.94328 | 34.03044 | 21184 ft | 398 kts | 336° |
| 2026-05-06 18:18 | 33.96933 | 34.01942 | 20681 ft | 396 kts | 336° |
| 2026-05-06 18:18 | 33.99524 | 34.00851 | 20184 ft | 393 kts | 336° |
| 2026-05-06 18:19 | 34.02103 | 33.99766 | 19682 ft | 391 kts | 336° |
| 2026-05-06 18:19 | 34.04662 | 33.98690 | 19196 ft | 389 kts | 336° |
| 2026-05-06 18:19 | 34.07210 | 33.97619 | 18690 ft | 387 kts | 336° |
| 2026-05-06 18:19 | 34.09747 | 33.96552 | 18155 ft | 386 kts | 336° |
| 2026-05-06 18:20 | 34.12274 | 33.95489 | 17617 ft | 383 kts | 336° |
| 2026-05-06 18:20 | 34.14783 | 33.94433 | 17109 ft | 380 kts | 337° |
| 2026-05-06 18:20 | 34.17271 | 33.93385 | 16597 ft | 377 kts | 337° |
| 2026-05-06 18:20 | 34.19740 | 33.92344 | 16126 ft | 374 kts | 338° |
| 2026-05-06 18:21 | 34.22189 | 33.91311 | 15649 ft | 371 kts | 338° |
| 2026-05-06 18:21 | 34.24621 | 33.90285 | 15174 ft | 369 kts | 338° |
| 2026-05-06 18:21 | 34.27035 | 33.89265 | 14703 ft | 366 kts | 338° |
| 2026-05-06 18:21 | 34.29435 | 33.88251 | 14232 ft | 364 kts | 339° |
| 2026-05-06 18:22 | 34.31822 | 33.87242 | 13747 ft | 362 kts | 339° |
| 2026-05-06 18:22 | 34.34192 | 33.86239 | 13228 ft | 360 kts | 339° |
| 2026-05-06 18:22 | 34.36544 | 33.85244 | 12750 ft | 356 kts | 339° |
| 2026-05-06 18:22 | 34.38842 | 33.84271 | 12280 ft | 353 kts | 339° |
| 2026-05-06 18:23 | 34.41069 | 33.83327 | 11844 ft | 350 kts | 339° |
| 2026-05-06 18:23 | 34.43352 | 33.82359 | 11388 ft | 346 kts | 339° |
| 2026-05-06 18:23 | 34.45616 | 33.81413 | 11025 ft | 338 kts | 342° |
| 2026-05-06 18:23 | 34.47883 | 33.80920 | 10891 ft | 327 kts | 355° |
| 2026-05-06 18:24 | 34.50144 | 33.80953 | 10752 ft | 316 kts | 5° |
| 2026-05-06 18:24 | 34.52228 | 33.81473 | 10618 ft | 304 kts | 13° |
| 2026-05-06 18:24 | 34.54237 | 33.82129 | 10487 ft | 294 kts | 13° |
| 2026-05-06 18:24 | 34.56170 | 33.82773 | 10362 ft | 282 kts | 13° |
| 2026-05-06 18:25 | 34.58024 | 33.83388 | 10252 ft | 271 kts | 13° |
| 2026-05-06 18:25 | 34.59806 | 33.83974 | 10137 ft | 259 kts | 13° |
| 2026-05-06 18:25 | 34.61537 | 33.84538 | 10041 ft | 260 kts | 13° |
| 2026-05-06 18:25 | 34.63325 | 33.85115 | 9791 ft | 272 kts | 13° |
| 2026-05-06 18:26 | 34.65160 | 33.85706 | 9484 ft | 274 kts | 13° |
| 2026-05-06 18:26 | 34.66993 | 33.86296 | 9158 ft | 271 kts | 13° |
| 2026-05-06 18:26 | 34.68796 | 33.86877 | 8849 ft | 266 kts | 13° |
| 2026-05-06 18:26 | 34.70619 | 33.87462 | 8569 ft | 280 kts | 14° |
| 2026-05-06 18:27 | 34.72553 | 33.88084 | 8367 ft | 286 kts | 14° |
| 2026-05-06 18:27 | 34.74432 | 33.88689 | 8045 ft | 274 kts | 14° |
| 2026-05-06 18:27 | 34.76243 | 33.89270 | 7617 ft | 266 kts | 14° |
| 2026-05-06 18:27 | 34.78019 | 33.89840 | 7294 ft | 262 kts | 14° |
| 2026-05-06 18:28 | 34.79773 | 33.90403 | 6994 ft | 258 kts | 14° |
| 2026-05-06 18:28 | 34.81494 | 33.90956 | 6690 ft | 254 kts | 15° |
| 2026-05-06 18:28 | 34.83183 | 33.91499 | 6405 ft | 249 kts | 15° |
| 2026-05-06 18:28 | 34.84841 | 33.92032 | 6116 ft | 245 kts | 15° |
| 2026-05-06 18:29 | 34.86505 | 33.92568 | 5864 ft | 252 kts | 15° |
| 2026-05-06 18:29 | 34.88229 | 33.93123 | 5564 ft | 260 kts | 15° |
| 2026-05-06 18:29 | 34.90002 | 33.93597 | 5228 ft | 261 kts | 2° |
| 2026-05-06 18:29 | 34.91761 | 33.93153 | 4927 ft | 261 kts | 332° |
| 2026-05-06 18:30 | 34.93119 | 33.91736 | 4607 ft | 258 kts | 306° |
| 2026-05-06 18:30 | 34.93900 | 33.89809 | 4321 ft | 252 kts | 289° |
| 2026-05-06 18:30 | 34.94456 | 33.87810 | 4100 ft | 245 kts | 289° |
| 2026-05-06 18:30 | 34.94993 | 33.85904 | 3950 ft | 232 kts | 289° |
| 2026-05-06 18:31 | 34.95513 | 33.84069 | 3674 ft | 226 kts | 289° |
| 2026-05-06 18:31 | 34.96023 | 33.82281 | 3409 ft | 220 kts | 289° |
| 2026-05-06 18:31 | 34.96520 | 33.80541 | 3130 ft | 215 kts | 289° |
| 2026-05-06 18:31 | 34.96995 | 33.78878 | 2844 ft | 199 kts | 289° |
| 2026-05-06 18:32 | 34.97194 | 33.77279 | 2588 ft | 193 kts | 259° |
| 2026-05-06 18:32 | 34.96843 | 33.75693 | 2450 ft | 195 kts | 256° |
| 2026-05-06 18:32 | 34.96508 | 33.74127 | 2162 ft | 189 kts | 256° |
| 2026-05-06 18:32 | 34.96074 | 33.72970 | 1918 ft | 179 kts | 229° |
| 2026-05-06 18:33 | 34.95352 | 33.72183 | 1790 ft | 167 kts | 223° |
| 2026-05-06 18:33 | 34.94529 | 33.71192 | 1633 ft | 169 kts | 227° |
| 2026-05-06 18:33 | 34.93758 | 33.70230 | 1552 ft | 170 kts | 226° |
| 2026-05-06 18:33 | 34.92917 | 33.69196 | 1343 ft | 171 kts | 227° |
| 2026-05-06 18:34 | 34.92102 | 33.68197 | 1132 ft | 161 kts | 226° |
| 2026-05-06 18:34 | 34.91358 | 33.67284 | 932 ft | 144 kts | 226° |
| 2026-05-06 18:34 | 34.90651 | 33.66418 | 814 ft | 148 kts | 226° |
| 2026-05-06 18:34 | 34.89909 | 33.65508 | 584 ft | 152 kts | 225° |
| 2026-05-06 18:35 | 34.89180 | 33.64608 | 371 ft | 145 kts | 225° |
| 2026-05-06 18:35 | 34.88473 | 33.63741 | 144 ft | 145 kts | 225° |
| 2026-05-06 18:35 | 34.87759 | 33.62867 | 35 ft | 143 kts | 225° |
| 2026-05-06 18:35 | 34.87040 | 33.61983 | 420 ft | 153 kts | 225° |
| 2026-05-06 18:36 | 34.86284 | 33.61071 | 1431 ft | 161 kts | 222° |
| 2026-05-06 18:36 | 34.85336 | 33.60006 | 1952 ft | 207 kts | 227° |
| 2026-05-06 18:36 | 34.84280 | 33.58694 | 2638 ft | 219 kts | 227° |
| 2026-05-06 18:36 | 34.83153 | 33.57500 | 3184 ft | 215 kts | 207° |
| 2026-05-06 18:37 | 34.81710 | 33.57194 | 3764 ft | 213 kts | 171° |
| 2026-05-06 18:37 | 34.80774 | 33.57547 | 4021 ft | 214 kts | 154° |
| 2026-05-06 18:37 | 34.79069 | 33.58899 | 3860 ft | 224 kts | 143° |
| 2026-05-06 18:37 | 34.77804 | 33.60055 | 3421 ft | 233 kts | 142° |
| 2026-05-06 18:38 | 34.76481 | 33.61273 | 2851 ft | 242 kts | 142° |
| 2026-05-06 18:38 | 34.75141 | 33.62500 | 2523 ft | 240 kts | 143° |
| 2026-05-06 18:38 | 34.73809 | 33.63713 | 2220 ft | 237 kts | 143° |
| 2026-05-06 18:38 | 34.72517 | 33.64882 | 2076 ft | 235 kts | 144° |
| 2026-05-06 18:39 | 34.71167 | 33.66098 | 2066 ft | 248 kts | 144° |
| 2026-05-06 18:39 | 34.69777 | 33.67349 | 2021 ft | 248 kts | 144° |
| 2026-05-06 18:39 | 34.68387 | 33.68591 | 2029 ft | 247 kts | 144° |
| 2026-05-06 18:40 | 34.65599 | 33.71086 | 2023 ft | 249 kts | 144° |
| 2026-05-06 18:40 | 34.64211 | 33.72336 | 2014 ft | 248 kts | 144° |
| 2026-05-06 18:40 | 34.62816 | 33.73586 | 2018 ft | 250 kts | 144° |
| 2026-05-06 18:40 | 34.61331 | 33.74613 | 2002 ft | 246 kts | 166° |
| 2026-05-06 18:41 | 34.59652 | 33.74676 | 2011 ft | 243 kts | 197° |
| 2026-05-06 18:41 | 34.58172 | 33.73721 | 2015 ft | 241 kts | 225° |
| 2026-05-06 18:41 | 34.57293 | 33.72037 | 2009 ft | 238 kts | 255° |
| 2026-05-06 18:41 | 34.57213 | 33.70048 | 2018 ft | 240 kts | 283° |
| 2026-05-06 18:42 | 34.57906 | 33.68214 | 2018 ft | 242 kts | 308° |
| 2026-05-06 18:42 | 34.59139 | 33.66842 | 2028 ft | 243 kts | 322° |
| 2026-05-06 18:42 | 34.60515 | 33.65610 | 2014 ft | 248 kts | 323° |
| 2026-05-06 18:42 | 34.61896 | 33.64386 | 2008 ft | 245 kts | 323° |
| 2026-05-06 18:43 | 34.63260 | 33.63166 | 2012 ft | 241 kts | 323° |
| 2026-05-06 18:43 | 34.64639 | 33.62060 | 1997 ft | 236 kts | 338° |
| 2026-05-06 18:43 | 34.66277 | 33.61825 | 2023 ft | 244 kts | 9° |
| 2026-05-06 18:43 | 34.67848 | 33.62636 | 2028 ft | 250 kts | 38° |
| 2026-05-06 18:44 | 34.68913 | 33.64289 | 2016 ft | 252 kts | 68° |
| 2026-05-06 18:44 | 34.69142 | 33.66375 | 2020 ft | 252 kts | 99° |
| 2026-05-06 18:44 | 34.68438 | 33.68293 | 2010 ft | 250 kts | 131° |
| 2026-05-06 18:44 | 34.67132 | 33.69661 | 2026 ft | 250 kts | 144° |
| 2026-05-06 18:45 | 34.65719 | 33.70941 | 2022 ft | 257 kts | 144° |
| 2026-05-06 18:45 | 34.64287 | 33.72246 | 2014 ft | 257 kts | 143° |
| 2026-05-06 18:45 | 34.62870 | 33.73545 | 2010 ft | 254 kts | 143° |
| 2026-05-06 18:45 | 34.61921 | 33.74346 | 1999 ft | 248 kts | 154° |
| 2026-05-06 18:46 | 34.59691 | 33.74725 | 2009 ft | 247 kts | 195° |
| 2026-05-06 18:46 | 34.58169 | 33.73805 | 2022 ft | 247 kts | 223° |
| 2026-05-06 18:46 | 34.57197 | 33.72108 | 2009 ft | 246 kts | 252° |
| 2026-05-06 18:46 | 34.57047 | 33.70080 | 2019 ft | 243 kts | 281° |
| 2026-05-06 18:47 | 34.57711 | 33.68231 | 2013 ft | 239 kts | 307° |
| 2026-05-06 18:47 | 34.58888 | 33.66869 | 2016 ft | 232 kts | 322° |
| 2026-05-06 18:47 | 34.60181 | 33.65700 | 2005 ft | 231 kts | 323° |
| 2026-05-06 18:47 | 34.61470 | 33.64557 | 2010 ft | 228 kts | 323° |
| 2026-05-06 18:48 | 34.62731 | 33.63419 | 2003 ft | 225 kts | 322° |
| 2026-05-06 18:48 | 34.63994 | 33.62295 | 2013 ft | 224 kts | 327° |
| 2026-05-06 18:48 | 34.65449 | 33.61677 | 2011 ft | 225 kts | 356° |
| 2026-05-06 18:48 | 34.66998 | 33.61957 | 2021 ft | 229 kts | 21° |
| 2026-05-06 18:49 | 34.68320 | 33.63044 | 2028 ft | 234 kts | 47° |
| 2026-05-06 18:49 | 34.69088 | 33.64785 | 2020 ft | 239 kts | 77° |
| 2026-05-06 18:49 | 34.69068 | 33.66769 | 2014 ft | 242 kts | 107° |
| 2026-05-06 18:49 | 34.68262 | 33.68548 | 2014 ft | 242 kts | 135° |
| 2026-05-06 18:50 | 34.66967 | 33.69809 | 2024 ft | 238 kts | 144° |
| 2026-05-06 18:50 | 34.65635 | 33.71028 | 2018 ft | 242 kts | 138° |
| 2026-05-06 18:50 | 34.64555 | 33.72704 | 2036 ft | 261 kts | 119° |
| 2026-05-06 18:50 | 34.64029 | 33.74766 | 2010 ft | 254 kts | 90° |
| 2026-05-06 18:51 | 34.64408 | 33.76831 | 2025 ft | 255 kts | 58° |
| 2026-05-06 18:51 | 34.65625 | 33.78363 | 2022 ft | 252 kts | 28° |
| 2026-05-06 18:51 | 34.67281 | 33.78975 | 2013 ft | 250 kts | 2° |
| 2026-05-06 18:51 | 34.69027 | 33.79103 | 2016 ft | 252 kts | 2° |
| 2026-05-06 18:52 | 34.70760 | 33.79235 | 2009 ft | 246 kts | 2° |
| 2026-05-06 18:52 | 34.72448 | 33.79359 | 2012 ft | 242 kts | 2° |
| 2026-05-06 18:52 | 34.74137 | 33.79479 | 2022 ft | 244 kts | 2° |
| 2026-05-06 18:52 | 34.75837 | 33.79600 | 2030 ft | 246 kts | 2° |
| 2026-05-06 18:53 | 34.77553 | 33.79724 | 2031 ft | 247 kts | 2° |
| 2026-05-06 18:53 | 34.79261 | 33.79964 | 2023 ft | 248 kts | 8° |
| 2026-05-06 18:53 | 34.80961 | 33.80366 | 2018 ft | 249 kts | 10° |
| 2026-05-06 18:53 | 34.82662 | 33.80782 | 2020 ft | 249 kts | 9° |
| 2026-05-06 18:54 | 34.84362 | 33.81187 | 2019 ft | 248 kts | 9° |
| 2026-05-06 18:54 | 34.86057 | 33.81578 | 2022 ft | 247 kts | 9° |
| 2026-05-06 18:54 | 34.87746 | 33.81961 | 2015 ft | 246 kts | 9° |
| 2026-05-06 18:54 | 34.89427 | 33.82338 | 2018 ft | 245 kts | 9° |
| 2026-05-06 18:55 | 34.91113 | 33.82715 | 2022 ft | 245 kts | 9° |
| 2026-05-06 18:55 | 34.92783 | 33.83069 | 2016 ft | 243 kts | 8° |
| 2026-05-06 18:55 | 34.94442 | 33.83067 | 2007 ft | 242 kts | 345° |
| 2026-05-06 18:55 | 34.95909 | 33.82189 | 1977 ft | 225 kts | 319° |
| 2026-05-06 18:56 | 34.96867 | 33.80801 | 1953 ft | 204 kts | 300° |
| 2026-05-06 18:56 | 34.97288 | 33.79822 | 1990 ft | 190 kts | 295° |
| 2026-05-06 18:56 | 34.97670 | 33.78332 | 1976 ft | 183 kts | 279° |
| 2026-05-06 18:56 | 34.97692 | 33.76796 | 1976 ft | 182 kts | 264° |
| 2026-05-06 18:57 | 34.97387 | 33.75292 | 1975 ft | 184 kts | 249° |
| 2026-05-06 18:57 | 34.96754 | 33.73930 | 1982 ft | 186 kts | 232° |
| 2026-05-06 18:57 | 34.95866 | 33.72785 | 1985 ft | 186 kts | 226° |
| 2026-05-06 18:57 | 34.94954 | 33.71691 | 1744 ft | 178 kts | 226° |
| 2026-05-06 18:58 | 34.94129 | 33.70685 | 1602 ft | 158 kts | 227° |
| 2026-05-06 18:58 | 34.93371 | 33.69754 | 1478 ft | 155 kts | 227° |
| 2026-05-06 18:58 | 34.92614 | 33.68825 | 1289 ft | 154 kts | 227° |
| 2026-05-06 18:58 | 34.91863 | 33.67904 | 1094 ft | 152 kts | 226° |
| 2026-05-06 18:59 | 34.91123 | 33.66995 | 893 ft | 151 kts | 226° |
| 2026-05-06 18:59 | 34.90386 | 33.66092 | 700 ft | 150 kts | 226° |
| 2026-05-06 18:59 | 34.89655 | 33.65201 | 493 ft | 148 kts | 226° |
| 2026-05-06 18:59 | 34.88935 | 33.64309 | 338 ft | 149 kts | 226° |
| 2026-05-06 19:00 | 34.88199 | 33.63411 | 155 ft | 150 kts | 226° |
| 2026-05-06 19:00 | 34.87466 | 33.62506 | 25 ft | 145 kts | 226° |
| 2026-05-06 19:00 | 34.86900 | 33.61814 | 27 ft | 76 kts | 223° |
| 2026-05-06 19:00 | 34.86744 | 33.61630 | 27 ft | 9 kts | 224° |
| 2026-05-06 19:01 | 34.86673 | 33.61539 | 25 ft | 16 kts | 226° |
| 2026-05-06 19:01 | 34.86601 | 33.61439 | 27 ft | 16 kts | 229° |
| 2026-05-06 19:01 | 34.86540 | 33.61324 | 27 ft | 16 kts | 243° |
| 2026-05-06 19:01 | 34.86497 | 33.61199 | 25 ft | 16 kts | 250° |
| 2026-05-06 19:02 | 34.86488 | 33.61069 | 28 ft | 16 kts | 297° |
| 2026-05-06 19:02 | 34.86585 | 33.61066 | 27 ft | 16 kts | 37° |
| 2026-05-06 19:02 | 34.86665 | 33.61165 | 24 ft | 16 kts | 45° |
| 2026-05-06 19:02 | 34.86745 | 33.61261 | 25 ft | 16 kts | 44° |
| 2026-05-06 19:03 | 34.86826 | 33.61358 | 26 ft | 16 kts | 44° |
| 2026-05-06 19:03 | 34.86906 | 33.61457 | 27 ft | 16 kts | 46° |
| 2026-05-06 19:03 | 34.86986 | 33.61555 | 27 ft | 16 kts | 45° |
| 2026-05-06 19:03 | 34.87067 | 33.61651 | 27 ft | 16 kts | 44° |
| 2026-05-06 19:04 | 34.87147 | 33.61748 | 25 ft | 16 kts | 49° |
| 2026-05-06 19:04 | 34.87225 | 33.61849 | 26 ft | 16 kts | 44° |
| 2026-05-06 19:04 | 34.87312 | 33.61938 | 26 ft | 16 kts | 41° |
| 2026-05-06 19:04 | 34.87384 | 33.62044 | 26 ft | 16 kts | 48° |
| 2026-05-06 19:05 | 34.87464 | 33.62142 | 24 ft | 16 kts | 43° |
| 2026-05-06 19:05 | 34.87545 | 33.62239 | 24 ft | 16 kts | 44° |
| 2026-05-06 19:05 | 34.87627 | 33.62334 | 26 ft | 16 kts | 43° |
| 2026-05-06 19:05 | 34.87707 | 33.62432 | 24 ft | 16 kts | 45° |
| 2026-05-06 19:06 | 34.87786 | 33.62530 | 23 ft | 16 kts | 47° |
| 2026-05-06 19:06 | 34.87865 | 33.62629 | 25 ft | 16 kts | 44° |
| 2026-05-06 19:06 | 34.87946 | 33.62727 | 25 ft | 16 kts | 44° |
| 2026-05-06 19:06 | 34.88027 | 33.62823 | 21 ft | 16 kts | 47° |
| 2026-05-06 19:07 | 34.88106 | 33.62923 | 21 ft | 16 kts | 45° |
| 2026-05-06 19:07 | 34.88186 | 33.63020 | 22 ft | 16 kts | 44° |
| 2026-05-06 19:07 | 34.88272 | 33.63113 | 23 ft | 21 kts | 52° |
| 2026-05-06 19:07 | 34.88395 | 33.63278 | 21 ft | 27 kts | 43° |
| 2026-05-06 19:08 | 34.88434 | 33.63309 | 20 ft | 4 kts | 18° |
| 2026-05-06 19:08 | 34.88480 | 33.63293 | 20 ft | 9 kts | 331° |
| 2026-05-06 19:08 | 34.88510 | 33.63231 | 20 ft | 10 kts | 263° |
| 2026-05-06 19:08 | 34.88488 | 33.63187 | 20 ft | 0 kts | 230° |